sensor_id;sensor_type;location;lat;lon;timestamp;temperature;humidity
10443;DHT22;5269;51.146;16.986;2022-12-07T00:01:44;2.40;99.90
10443;DHT22;5269;51.146;16.986;2022-12-07T00:04:15;2.30;99.90
10443;DHT22;5269;51.146;16.986;2022-12-07T00:06:43;2.30;99.90
10443;DHT22;5269;51.146;16.986;2022-12-07T00:09:14;2.40;99.90
10443;DHT22;5269;51.146;16.986;2022-12-07T00:11:42;2.30;99.90
10443;DHT22;5269;51.146;16.986;2022-12-07T00:14:12;2.30;99.90
10443;DHT22;5269;51.146;16.986;2022-12-07T00:16:44;2.30;99.90
10443;DHT22;5269;51.146;16.986;2022-12-07T00:19:11;2.30;99.90
10443;DHT22;5269;51.146;16.986;2022-12-07T00:21:40;2.40;99.90
10443;DHT22;5269;51.146;16.986;2022-12-07T00:24:07;2.40;99.90
10443;DHT22;5269;51.146;16.986;2022-12-07T00:26:36;2.30;99.90
10443;DHT22;5269;51.146;16.986;2022-12-07T00:29:05;2.30;99.90
10443;DHT22;5269;51.146;16.986;2022-12-07T00:31:34;2.30;99.90
10443;DHT22;5269;51.146;16.986;2022-12-07T00:34:06;2.40;99.90
10443;DHT22;5269;51.146;16.986;2022-12-07T00:36:36;2.30;99.90
10443;DHT22;5269;51.146;16.986;2022-12-07T00:39:03;2.30;99.90
10443;DHT22;5269;51.146;16.986;2022-12-07T00:41:33;2.30;99.90
10443;DHT22;5269;51.146;16.986;2022-12-07T00:44:03;2.30;99.90
10443;DHT22;5269;51.146;16.986;2022-12-07T00:46:30;2.30;99.90
10443;DHT22;5269;51.146;16.986;2022-12-07T00:48:59;2.30;99.90
10443;DHT22;5269;51.146;16.986;2022-12-07T00:51:27;2.30;99.90
10443;DHT22;5269;51.146;16.986;2022-12-07T00:53:54;2.30;99.90
10443;DHT22;5269;51.146;16.986;2022-12-07T00:56:29;2.20;99.90
10443;DHT22;5269;51.146;16.986;2022-12-07T00:59:02;2.30;99.90
10443;DHT22;5269;51.146;16.986;2022-12-07T01:01:33;2.20;99.90
10443;DHT22;5269;51.146;16.986;2022-12-07T01:04:01;2.30;99.90
10443;DHT22;5269;51.146;16.986;2022-12-07T01:06:30;2.30;99.90
10443;DHT22;5269;51.146;16.986;2022-12-07T01:08:58;2.30;99.90
10443;DHT22;5269;51.146;16.986;2022-12-07T01:11:26;2.30;99.90
10443;DHT22;5269;51.146;16.986;2022-12-07T01:13:57;2.30;99.90
10443;DHT22;5269;51.146;16.986;2022-12-07T01:16:32;2.30;99.90
10443;DHT22;5269;51.146;16.986;2022-12-07T01:19:00;2.30;99.90
10443;DHT22;5269;51.146;16.986;2022-12-07T01:21:33;2.30;99.90
10443;DHT22;5269;51.146;16.986;2022-12-07T01:24:04;2.30;99.90
10443;DHT22;5269;51.146;16.986;2022-12-07T01:26:32;2.30;99.90
10443;DHT22;5269;51.146;16.986;2022-12-07T01:29:02;2.30;99.90
10443;DHT22;5269;51.146;16.986;2022-12-07T01:31:29;2.30;99.90
10443;DHT22;5269;51.146;16.986;2022-12-07T01:33:58;2.20;99.90
10443;DHT22;5269;51.146;16.986;2022-12-07T01:36:27;2.30;99.90
10443;DHT22;5269;51.146;16.986;2022-12-07T01:38:59;2.30;99.90
10443;DHT22;5269;51.146;16.986;2022-12-07T01:41:31;2.20;99.90
10443;DHT22;5269;51.146;16.986;2022-12-07T01:44:20;2.20;99.90
10443;DHT22;5269;51.146;16.986;2022-12-07T01:46:48;2.20;99.90
10443;DHT22;5269;51.146;16.986;2022-12-07T01:49:23;2.20;99.90
10443;DHT22;5269;51.146;16.986;2022-12-07T01:52:13;2.20;99.90
10443;DHT22;5269;51.146;16.986;2022-12-07T01:54:42;2.20;99.90
10443;DHT22;5269;51.146;16.986;2022-12-07T01:57:13;2.10;99.90
10443;DHT22;5269;51.146;16.986;2022-12-07T01:59:42;2.20;99.90
10443;DHT22;5269;51.146;16.986;2022-12-07T02:02:15;2.20;99.90
10443;DHT22;5269;51.146;16.986;2022-12-07T02:04:45;2.10;99.90
10443;DHT22;5269;51.146;16.986;2022-12-07T02:07:13;2.20;99.90
10443;DHT22;5269;51.146;16.986;2022-12-07T02:09:42;2.10;99.90
10443;DHT22;5269;51.146;16.986;2022-12-07T02:12:11;2.10;99.90
10443;DHT22;5269;51.146;16.986;2022-12-07T02:14:40;2.10;99.90
10443;DHT22;5269;51.146;16.986;2022-12-07T02:17:14;2.10;99.90
10443;DHT22;5269;51.146;16.986;2022-12-07T02:20:13;2.00;99.90
10443;DHT22;5269;51.146;16.986;2022-12-07T02:23:21;2.00;99.90
10443;DHT22;5269;51.146;16.986;2022-12-07T02:29:12;2.00;99.90
10443;DHT22;5269;51.146;16.986;2022-12-07T02:31:46;1.90;99.90
10443;DHT22;5269;51.146;16.986;2022-12-07T02:34:20;1.90;99.90
10443;DHT22;5269;51.146;16.986;2022-12-07T02:36:54;1.80;99.90
10443;DHT22;5269;51.146;16.986;2022-12-07T02:39:28;1.90;99.90
10443;DHT22;5269;51.146;16.986;2022-12-07T02:42:02;1.90;99.90
10443;DHT22;5269;51.146;16.986;2022-12-07T02:44:31;1.90;99.90
10443;DHT22;5269;51.146;16.986;2022-12-07T02:47:07;1.90;99.90
10443;DHT22;5269;51.146;16.986;2022-12-07T02:49:38;1.90;99.90
10443;DHT22;5269;51.146;16.986;2022-12-07T02:52:11;1.90;99.90
10443;DHT22;5269;51.146;16.986;2022-12-07T02:54:38;1.90;99.90
10443;DHT22;5269;51.146;16.986;2022-12-07T02:57:21;1.90;99.90
10443;DHT22;5269;51.146;16.986;2022-12-07T03:00:00;1.90;99.90
10443;DHT22;5269;51.146;16.986;2022-12-07T03:02:35;1.80;99.90
10443;DHT22;5269;51.146;16.986;2022-12-07T03:05:13;1.90;99.90
10443;DHT22;5269;51.146;16.986;2022-12-07T03:07:51;2.00;99.90
10443;DHT22;5269;51.146;16.986;2022-12-07T03:10:24;1.80;99.90
10443;DHT22;5269;51.146;16.986;2022-12-07T03:13:02;1.90;99.90
10443;DHT22;5269;51.146;16.986;2022-12-07T03:15:35;2.00;99.90
10443;DHT22;5269;51.146;16.986;2022-12-07T03:18:11;1.90;99.90
10443;DHT22;5269;51.146;16.986;2022-12-07T03:20:42;1.90;99.90
10443;DHT22;5269;51.146;16.986;2022-12-07T03:23:12;1.90;99.90
10443;DHT22;5269;51.146;16.986;2022-12-07T03:25:45;1.90;99.90
10443;DHT22;5269;51.146;16.986;2022-12-07T03:28:15;2.00;99.90
10443;DHT22;5269;51.146;16.986;2022-12-07T03:30:52;1.70;99.90
10443;DHT22;5269;51.146;16.986;2022-12-07T03:33:25;1.90;99.90
10443;DHT22;5269;51.146;16.986;2022-12-07T03:36:00;1.90;99.90
10443;DHT22;5269;51.146;16.986;2022-12-07T03:38:32;2.00;99.90
10443;DHT22;5269;51.146;16.986;2022-12-07T03:41:03;1.90;99.90
10443;DHT22;5269;51.146;16.986;2022-12-07T03:43:33;1.90;99.90
10443;DHT22;5269;51.146;16.986;2022-12-07T03:46:11;2.00;99.90
10443;DHT22;5269;51.146;16.986;2022-12-07T03:48:44;1.90;99.90
10443;DHT22;5269;51.146;16.986;2022-12-07T03:51:18;1.90;99.90
10443;DHT22;5269;51.146;16.986;2022-12-07T03:53:51;1.90;99.90
10443;DHT22;5269;51.146;16.986;2022-12-07T03:56:20;1.90;99.90
10443;DHT22;5269;51.146;16.986;2022-12-07T03:58:50;1.90;99.90
10443;DHT22;5269;51.146;16.986;2022-12-07T04:01:20;1.90;99.90
10443;DHT22;5269;51.146;16.986;2022-12-07T04:03:46;1.90;99.90
10443;DHT22;5269;51.146;16.986;2022-12-07T04:06:14;1.90;99.90
10443;DHT22;5269;51.146;16.986;2022-12-07T04:08:42;1.90;99.90
10443;DHT22;5269;51.146;16.986;2022-12-07T04:11:09;1.90;99.90
10443;DHT22;5269;51.146;16.986;2022-12-07T04:13:36;1.90;99.90
10443;DHT22;5269;51.146;16.986;2022-12-07T04:16:17;1.90;99.90
10443;DHT22;5269;51.146;16.986;2022-12-07T04:18:45;1.90;99.90
10443;DHT22;5269;51.146;16.986;2022-12-07T04:21:14;1.90;99.90
10443;DHT22;5269;51.146;16.986;2022-12-07T04:23:41;1.90;99.90
10443;DHT22;5269;51.146;16.986;2022-12-07T04:26:07;2.00;99.90
10443;DHT22;5269;51.146;16.986;2022-12-07T04:28:34;1.90;99.90
10443;DHT22;5269;51.146;16.986;2022-12-07T04:31:01;1.90;99.90
10443;DHT22;5269;51.146;16.986;2022-12-07T04:33:28;1.90;99.90
10443;DHT22;5269;51.146;16.986;2022-12-07T04:35:56;1.90;99.90
10443;DHT22;5269;51.146;16.986;2022-12-07T04:38:23;1.90;99.90
10443;DHT22;5269;51.146;16.986;2022-12-07T04:40:52;1.90;99.90
10443;DHT22;5269;51.146;16.986;2022-12-07T04:43:19;1.90;99.90
10443;DHT22;5269;51.146;16.986;2022-12-07T04:45:46;1.90;99.90
10443;DHT22;5269;51.146;16.986;2022-12-07T04:48:13;1.90;99.90
10443;DHT22;5269;51.146;16.986;2022-12-07T04:50:40;1.80;99.90
10443;DHT22;5269;51.146;16.986;2022-12-07T04:53:10;1.80;99.90
10443;DHT22;5269;51.146;16.986;2022-12-07T04:55:43;1.80;99.90
10443;DHT22;5269;51.146;16.986;2022-12-07T04:58:10;1.60;99.90
10443;DHT22;5269;51.146;16.986;2022-12-07T05:00:37;1.80;99.90
10443;DHT22;5269;51.146;16.986;2022-12-07T05:03:04;1.80;99.90
10443;DHT22;5269;51.146;16.986;2022-12-07T05:05:31;1.90;99.90
10443;DHT22;5269;51.146;16.986;2022-12-07T05:08:04;1.80;99.90
10443;DHT22;5269;51.146;16.986;2022-12-07T05:10:32;1.90;99.90
10443;DHT22;5269;51.146;16.986;2022-12-07T05:13:02;2.00;99.90
10443;DHT22;5269;51.146;16.986;2022-12-07T05:15:29;1.80;99.90
10443;DHT22;5269;51.146;16.986;2022-12-07T05:17:59;2.10;99.90
10443;DHT22;5269;51.146;16.986;2022-12-07T05:20:25;2.00;99.90
10443;DHT22;5269;51.146;16.986;2022-12-07T05:22:52;2.00;99.90
10443;DHT22;5269;51.146;16.986;2022-12-07T05:25:21;2.00;99.90
10443;DHT22;5269;51.146;16.986;2022-12-07T05:27:53;2.10;99.90
10443;DHT22;5269;51.146;16.986;2022-12-07T05:30:23;2.10;99.90
10443;DHT22;5269;51.146;16.986;2022-12-07T05:32:52;2.10;99.90
10443;DHT22;5269;51.146;16.986;2022-12-07T05:35:19;2.10;99.90
10443;DHT22;5269;51.146;16.986;2022-12-07T05:37:46;2.20;99.90
10443;DHT22;5269;51.146;16.986;2022-12-07T05:40:15;2.20;99.90
10443;DHT22;5269;51.146;16.986;2022-12-07T05:42:44;2.30;99.90
10443;DHT22;5269;51.146;16.986;2022-12-07T05:45:14;2.40;99.90
10443;DHT22;5269;51.146;16.986;2022-12-07T05:47:41;2.00;99.90
10443;DHT22;5269;51.146;16.986;2022-12-07T05:50:11;2.30;99.90
10443;DHT22;5269;51.146;16.986;2022-12-07T05:52:38;2.30;99.90
10443;DHT22;5269;51.146;16.986;2022-12-07T05:55:09;2.30;99.90
10443;DHT22;5269;51.146;16.986;2022-12-07T05:57:40;2.30;99.90
10443;DHT22;5269;51.146;16.986;2022-12-07T06:00:32;2.30;99.90
10443;DHT22;5269;51.146;16.986;2022-12-07T06:03:00;2.40;99.90
10443;DHT22;5269;51.146;16.986;2022-12-07T06:05:33;2.30;99.90
10443;DHT22;5269;51.146;16.986;2022-12-07T06:08:21;2.40;99.90
10443;DHT22;5269;51.146;16.986;2022-12-07T06:11:11;2.30;99.90
10443;DHT22;5269;51.146;16.986;2022-12-07T06:14:14;2.30;99.90
10443;DHT22;5269;51.146;16.986;2022-12-07T06:19:56;2.30;99.90
10443;DHT22;5269;51.146;16.986;2022-12-07T06:22:42;2.20;99.90
10443;DHT22;5269;51.146;16.986;2022-12-07T06:25:13;2.30;99.90
10443;DHT22;5269;51.146;16.986;2022-12-07T06:27:44;2.40;99.90
10443;DHT22;5269;51.146;16.986;2022-12-07T06:30:56;2.20;99.90
10443;DHT22;5269;51.146;16.986;2022-12-07T06:33:24;2.30;99.90
10443;DHT22;5269;51.146;16.986;2022-12-07T06:36:33;2.30;99.90
10443;DHT22;5269;51.146;16.986;2022-12-07T06:39:23;2.30;99.90
10443;DHT22;5269;51.146;16.986;2022-12-07T06:42:05;2.30;99.90
10443;DHT22;5269;51.146;16.986;2022-12-07T06:44:35;2.10;99.90
10443;DHT22;5269;51.146;16.986;2022-12-07T06:47:17;2.20;99.90
10443;DHT22;5269;51.146;16.986;2022-12-07T06:50:02;2.40;99.90
10443;DHT22;5269;51.146;16.986;2022-12-07T06:52:42;2.30;99.90
10443;DHT22;5269;51.146;16.986;2022-12-07T06:55:13;2.40;99.90
10443;DHT22;5269;51.146;16.986;2022-12-07T06:57:45;2.40;99.90
10443;DHT22;5269;51.146;16.986;2022-12-07T07:00:24;2.30;99.90
10443;DHT22;5269;51.146;16.986;2022-12-07T07:03:02;2.40;99.90
10443;DHT22;5269;51.146;16.986;2022-12-07T07:16:03;2.40;99.90
10443;DHT22;5269;51.146;16.986;2022-12-07T07:29:53;2.40;99.90
10443;DHT22;5269;51.146;16.986;2022-12-07T07:32:35;2.50;99.90
10443;DHT22;5269;51.146;16.986;2022-12-07T07:35:06;2.40;99.90
10443;DHT22;5269;51.146;16.986;2022-12-07T07:37:34;2.40;99.90
10443;DHT22;5269;51.146;16.986;2022-12-07T07:40:01;2.40;99.90
10443;DHT22;5269;51.146;16.986;2022-12-07T07:42:28;2.50;99.90
10443;DHT22;5269;51.146;16.986;2022-12-07T07:44:55;2.60;99.90
10443;DHT22;5269;51.146;16.986;2022-12-07T07:47:22;2.50;99.90
10443;DHT22;5269;51.146;16.986;2022-12-07T07:49:50;2.60;99.90
10443;DHT22;5269;51.146;16.986;2022-12-07T07:52:18;2.50;99.90
10443;DHT22;5269;51.146;16.986;2022-12-07T07:54:45;2.40;99.90
10443;DHT22;5269;51.146;16.986;2022-12-07T07:57:19;2.50;99.90
10443;DHT22;5269;51.146;16.986;2022-12-07T07:59:45;2.50;99.90
10443;DHT22;5269;51.146;16.986;2022-12-07T08:02:14;2.40;99.90
10443;DHT22;5269;51.146;16.986;2022-12-07T08:04:41;2.50;99.90
10443;DHT22;5269;51.146;16.986;2022-12-07T08:07:12;2.40;99.90
10443;DHT22;5269;51.146;16.986;2022-12-07T08:09:39;2.40;99.90
10443;DHT22;5269;51.146;16.986;2022-12-07T08:12:06;2.20;99.90
10443;DHT22;5269;51.146;16.986;2022-12-07T08:14:34;2.40;99.90
10443;DHT22;5269;51.146;16.986;2022-12-07T08:17:01;2.40;99.90
10443;DHT22;5269;51.146;16.986;2022-12-07T08:19:30;2.50;99.90
10443;DHT22;5269;51.146;16.986;2022-12-07T08:21:57;2.50;99.90
10443;DHT22;5269;51.146;16.986;2022-12-07T08:24:25;2.50;99.90
10443;DHT22;5269;51.146;16.986;2022-12-07T08:26:52;2.50;99.90
10443;DHT22;5269;51.146;16.986;2022-12-07T08:29:19;2.70;99.90
10443;DHT22;5269;51.146;16.986;2022-12-07T08:31:46;2.60;99.90
10443;DHT22;5269;51.146;16.986;2022-12-07T08:39:33;2.70;99.90
10443;DHT22;5269;51.146;16.986;2022-12-07T08:42:02;2.80;99.90
10443;DHT22;5269;51.146;16.986;2022-12-07T08:44:29;2.80;99.90
10443;DHT22;5269;51.146;16.986;2022-12-07T08:47:00;2.80;99.90
10443;DHT22;5269;51.146;16.986;2022-12-07T08:49:32;2.90;99.90
10443;DHT22;5269;51.146;16.986;2022-12-07T08:51:59;3.00;99.90
10443;DHT22;5269;51.146;16.986;2022-12-07T08:54:28;3.00;99.90
10443;DHT22;5269;51.146;16.986;2022-12-07T08:56:56;3.00;99.90
10443;DHT22;5269;51.146;16.986;2022-12-07T08:59:23;3.10;99.90
10443;DHT22;5269;51.146;16.986;2022-12-07T09:01:50;3.10;99.90
10443;DHT22;5269;51.146;16.986;2022-12-07T09:04:17;3.00;99.90
10443;DHT22;5269;51.146;16.986;2022-12-07T09:06:44;3.30;99.90
10443;DHT22;5269;51.146;16.986;2022-12-07T09:09:12;3.40;99.90
10443;DHT22;5269;51.146;16.986;2022-12-07T09:11:57;3.50;99.90
10443;DHT22;5269;51.146;16.986;2022-12-07T09:17:51;3.50;99.90
10443;DHT22;5269;51.146;16.986;2022-12-07T09:23:43;3.60;99.90
10443;DHT22;5269;51.146;16.986;2022-12-07T09:32:53;4.00;34.90
10443;DHT22;5269;51.146;16.986;2022-12-07T09:35:20;4.30;62.70
10443;DHT22;5269;51.146;16.986;2022-12-07T09:45:06;4.10;1.00
10443;DHT22;5269;51.146;16.986;2022-12-07T09:47:34;4.00;1.00
10443;DHT22;5269;51.146;16.986;2022-12-07T09:50:06;4.10;1.00
10443;DHT22;5269;51.146;16.986;2022-12-07T09:52:34;4.00;1.00
10443;DHT22;5269;51.146;16.986;2022-12-07T09:55:01;3.90;1.00
10443;DHT22;5269;51.146;16.986;2022-12-07T09:57:33;4.00;1.00
10443;DHT22;5269;51.146;16.986;2022-12-07T10:00:34;4.10;99.90
10443;DHT22;5269;51.146;16.986;2022-12-07T10:10:17;4.30;99.90
10443;DHT22;5269;51.146;16.986;2022-12-07T10:13:00;4.30;1.00
10443;DHT22;5269;51.146;16.986;2022-12-07T10:15:44;4.40;1.00
10443;DHT22;5269;51.146;16.986;2022-12-07T10:18:21;4.30;17.10
10443;DHT22;5269;51.146;16.986;2022-12-07T10:21:05;4.40;1.00
10443;DHT22;5269;51.146;16.986;2022-12-07T10:23:39;4.40;99.90
10443;DHT22;5269;51.146;16.986;2022-12-07T10:26:40;4.30;1.00
10443;DHT22;5269;51.146;16.986;2022-12-07T10:29:16;4.20;1.00
10443;DHT22;5269;51.146;16.986;2022-12-07T10:45:29;3.70;99.90
10443;DHT22;5269;51.146;16.986;2022-12-07T10:48:02;3.80;99.90
10443;DHT22;5269;51.146;16.986;2022-12-07T10:54:04;3.80;1.00
10443;DHT22;5269;51.146;16.986;2022-12-07T10:56:56;3.90;1.00
10443;DHT22;5269;51.146;16.986;2022-12-07T11:02:45;3.80;1.00
10443;DHT22;5269;51.146;16.986;2022-12-07T11:05:19;3.70;1.00
10443;DHT22;5269;51.146;16.986;2022-12-07T11:07:56;3.70;62.90
10443;DHT22;5269;51.146;16.986;2022-12-07T11:10:33;3.50;99.90
10443;DHT22;5269;51.146;16.986;2022-12-07T11:13:18;3.60;99.90
10443;DHT22;5269;51.146;16.986;2022-12-07T11:19:25;3.50;99.90
10443;DHT22;5269;51.146;16.986;2022-12-07T11:46:45;3.70;99.90
10443;DHT22;5269;51.146;16.986;2022-12-07T11:53:15;3.70;99.90
10443;DHT22;5269;51.146;16.986;2022-12-07T11:56:06;3.70;99.90
10443;DHT22;5269;51.146;16.986;2022-12-07T11:58:47;3.80;99.90
10443;DHT22;5269;51.146;16.986;2022-12-07T12:01:28;3.70;99.90
10443;DHT22;5269;51.146;16.986;2022-12-07T12:04:12;3.80;99.90
10443;DHT22;5269;51.146;16.986;2022-12-07T12:06:43;3.70;99.90
10443;DHT22;5269;51.146;16.986;2022-12-07T12:09:17;3.70;99.90
10443;DHT22;5269;51.146;16.986;2022-12-07T12:14:48;3.70;99.90
10443;DHT22;5269;51.146;16.986;2022-12-07T12:17:44;3.70;99.90
10443;DHT22;5269;51.146;16.986;2022-12-07T12:20:20;3.80;99.90
10443;DHT22;5269;51.146;16.986;2022-12-07T12:22:58;3.70;99.90
10443;DHT22;5269;51.146;16.986;2022-12-07T12:25:28;3.90;99.90
10443;DHT22;5269;51.146;16.986;2022-12-07T12:27:58;3.90;99.90
10443;DHT22;5269;51.146;16.986;2022-12-07T12:30:37;3.80;99.90
10443;DHT22;5269;51.146;16.986;2022-12-07T12:33:14;3.90;99.90
10443;DHT22;5269;51.146;16.986;2022-12-07T12:35:44;3.90;99.90
10443;DHT22;5269;51.146;16.986;2022-12-07T12:38:28;4.00;99.90
10443;DHT22;5269;51.146;16.986;2022-12-07T12:46:37;4.10;99.90
10443;DHT22;5269;51.146;16.986;2022-12-07T13:01:38;4.00;99.90
10443;DHT22;5269;51.146;16.986;2022-12-07T13:04:30;3.90;99.90
10443;DHT22;5269;51.146;16.986;2022-12-07T13:14:58;4.00;99.90
10443;DHT22;5269;51.146;16.986;2022-12-07T13:17:57;3.90;99.90
10443;DHT22;5269;51.146;16.986;2022-12-07T13:20:44;3.90;99.90
10443;DHT22;5269;51.146;16.986;2022-12-07T13:23:30;3.90;99.90
10443;DHT22;5269;51.146;16.986;2022-12-07T13:26:24;3.80;99.90
10443;DHT22;5269;51.146;16.986;2022-12-07T13:29:11;3.90;99.90
10443;DHT22;5269;51.146;16.986;2022-12-07T13:31:47;3.90;99.90
10443;DHT22;5269;51.146;16.986;2022-12-07T13:34:32;3.90;99.90
10443;DHT22;5269;51.146;16.986;2022-12-07T13:37:12;3.80;99.90
10443;DHT22;5269;51.146;16.986;2022-12-07T13:39:49;3.90;99.90
10443;DHT22;5269;51.146;16.986;2022-12-07T13:42:26;3.90;99.90
10443;DHT22;5269;51.146;16.986;2022-12-07T13:44:59;3.90;99.90
10443;DHT22;5269;51.146;16.986;2022-12-07T13:47:34;3.80;99.90
10443;DHT22;5269;51.146;16.986;2022-12-07T13:50:22;3.90;99.90
10443;DHT22;5269;51.146;16.986;2022-12-07T13:52:57;3.80;99.90
10443;DHT22;5269;51.146;16.986;2022-12-07T13:55:30;3.80;99.90
10443;DHT22;5269;51.146;16.986;2022-12-07T13:57:59;3.90;99.90
10443;DHT22;5269;51.146;16.986;2022-12-07T14:00:30;3.90;99.90
10443;DHT22;5269;51.146;16.986;2022-12-07T14:03:02;3.80;99.90
10443;DHT22;5269;51.146;16.986;2022-12-07T14:05:34;3.80;99.90
10443;DHT22;5269;51.146;16.986;2022-12-07T14:08:22;3.80;99.90
10443;DHT22;5269;51.146;16.986;2022-12-07T14:11:00;3.90;99.90
10443;DHT22;5269;51.146;16.986;2022-12-07T14:13:32;3.90;99.90
10443;DHT22;5269;51.146;16.986;2022-12-07T14:16:00;3.90;99.90
10443;DHT22;5269;51.146;16.986;2022-12-07T14:18:38;3.90;99.90
10443;DHT22;5269;51.146;16.986;2022-12-07T14:21:15;3.80;99.90
10443;DHT22;5269;51.146;16.986;2022-12-07T14:24:02;3.90;99.90
10443;DHT22;5269;51.146;16.986;2022-12-07T14:26:39;3.90;99.90
10443;DHT22;5269;51.146;16.986;2022-12-07T14:29:31;3.90;99.90
10443;DHT22;5269;51.146;16.986;2022-12-07T14:32:17;3.90;80.80
10443;DHT22;5269;51.146;16.986;2022-12-07T14:35:21;3.90;68.00
10443;DHT22;5269;51.146;16.986;2022-12-07T14:37:49;3.90;18.60
10443;DHT22;5269;51.146;16.986;2022-12-07T14:40:26;3.80;61.50
10443;DHT22;5269;51.146;16.986;2022-12-07T14:43:00;3.80;1.00
10443;DHT22;5269;51.146;16.986;2022-12-07T14:45:28;3.80;4.90
10443;DHT22;5269;51.146;16.986;2022-12-07T14:48:01;3.70;16.20
10443;DHT22;5269;51.146;16.986;2022-12-07T14:50:35;3.70;1.80
10443;DHT22;5269;51.146;16.986;2022-12-07T14:53:12;3.60;8.40
10443;DHT22;5269;51.146;16.986;2022-12-07T14:55:49;3.70;1.00
10443;DHT22;5269;51.146;16.986;2022-12-07T14:58:17;3.60;34.20
10443;DHT22;5269;51.146;16.986;2022-12-07T15:00:44;3.60;57.50
10443;DHT22;5269;51.146;16.986;2022-12-07T15:03:13;3.60;39.60
10443;DHT22;5269;51.146;16.986;2022-12-07T15:05:44;3.60;51.20
10443;DHT22;5269;51.146;16.986;2022-12-07T15:08:12;3.60;39.40
10443;DHT22;5269;51.146;16.986;2022-12-07T15:10:42;3.60;43.00
10443;DHT22;5269;51.146;16.986;2022-12-07T15:13:11;3.60;63.90
10443;DHT22;5269;51.146;16.986;2022-12-07T15:15:59;3.50;99.90
10443;DHT22;5269;51.146;16.986;2022-12-07T15:18:32;3.40;99.90
10443;DHT22;5269;51.146;16.986;2022-12-07T15:21:12;3.40;99.90
10443;DHT22;5269;51.146;16.986;2022-12-07T15:23:40;3.30;99.90
10443;DHT22;5269;51.146;16.986;2022-12-07T15:26:10;3.20;99.90
10443;DHT22;5269;51.146;16.986;2022-12-07T15:28:37;3.30;99.90
10443;DHT22;5269;51.146;16.986;2022-12-07T15:31:10;3.30;99.90
10443;DHT22;5269;51.146;16.986;2022-12-07T15:36:18;3.30;99.90
10443;DHT22;5269;51.146;16.986;2022-12-07T15:38:46;3.20;99.90
10443;DHT22;5269;51.146;16.986;2022-12-07T15:41:22;3.20;99.90
10443;DHT22;5269;51.146;16.986;2022-12-07T15:43:51;3.30;99.90
10443;DHT22;5269;51.146;16.986;2022-12-07T15:46:39;3.20;99.90
10443;DHT22;5269;51.146;16.986;2022-12-07T15:49:11;3.20;99.90
10443;DHT22;5269;51.146;16.986;2022-12-07T15:51:40;3.10;99.90
10443;DHT22;5269;51.146;16.986;2022-12-07T15:54:11;3.10;99.90
10443;DHT22;5269;51.146;16.986;2022-12-07T15:56:38;3.10;99.90
10443;DHT22;5269;51.146;16.986;2022-12-07T15:59:08;3.10;99.90
10443;DHT22;5269;51.146;16.986;2022-12-07T16:01:45;3.10;99.90
10443;DHT22;5269;51.146;16.986;2022-12-07T16:04:12;3.00;99.90
10443;DHT22;5269;51.146;16.986;2022-12-07T16:06:41;3.00;99.90
10443;DHT22;5269;51.146;16.986;2022-12-07T16:09:12;3.00;99.90
10443;DHT22;5269;51.146;16.986;2022-12-07T16:11:39;2.90;99.90
10443;DHT22;5269;51.146;16.986;2022-12-07T16:14:08;2.90;99.90
10443;DHT22;5269;51.146;16.986;2022-12-07T16:16:35;2.90;99.90
10443;DHT22;5269;51.146;16.986;2022-12-07T16:19:02;2.90;99.90
10443;DHT22;5269;51.146;16.986;2022-12-07T16:21:29;2.90;99.90
10443;DHT22;5269;51.146;16.986;2022-12-07T16:24:17;2.90;99.90
10443;DHT22;5269;51.146;16.986;2022-12-07T16:27:00;2.90;99.90
10443;DHT22;5269;51.146;16.986;2022-12-07T16:29:30;2.90;99.90
10443;DHT22;5269;51.146;16.986;2022-12-07T16:32:00;2.90;99.90
10443;DHT22;5269;51.146;16.986;2022-12-07T16:34:41;2.90;99.90
10443;DHT22;5269;51.146;16.986;2022-12-07T16:37:08;2.90;99.90
10443;DHT22;5269;51.146;16.986;2022-12-07T16:39:39;2.90;99.90
10443;DHT22;5269;51.146;16.986;2022-12-07T16:42:06;2.90;99.90
10443;DHT22;5269;51.146;16.986;2022-12-07T16:44:39;2.90;99.90
10443;DHT22;5269;51.146;16.986;2022-12-07T16:47:07;2.80;99.90
10443;DHT22;5269;51.146;16.986;2022-12-07T16:49:36;2.80;99.90
10443;DHT22;5269;51.146;16.986;2022-12-07T16:52:03;2.80;99.90
10443;DHT22;5269;51.146;16.986;2022-12-07T16:57:11;2.80;99.90
10443;DHT22;5269;51.146;16.986;2022-12-07T16:59:38;2.90;99.90
10443;DHT22;5269;51.146;16.986;2022-12-07T17:02:09;2.80;99.90
10443;DHT22;5269;51.146;16.986;2022-12-07T17:04:37;2.70;99.90
10443;DHT22;5269;51.146;16.986;2022-12-07T17:07:08;2.70;99.90
10443;DHT22;5269;51.146;16.986;2022-12-07T17:09:38;2.70;99.90
10443;DHT22;5269;51.146;16.986;2022-12-07T17:12:07;2.70;99.90
10443;DHT22;5269;51.146;16.986;2022-12-07T17:14:58;2.60;99.90
10443;DHT22;5269;51.146;16.986;2022-12-07T17:18:01;2.60;99.90
10443;DHT22;5269;51.146;16.986;2022-12-07T17:20:29;2.60;99.90
10443;DHT22;5269;51.146;16.986;2022-12-07T17:23:02;2.60;99.90
10443;DHT22;5269;51.146;16.986;2022-12-07T17:25:49;2.50;99.90
10443;DHT22;5269;51.146;16.986;2022-12-07T17:28:21;2.70;99.90
10443;DHT22;5269;51.146;16.986;2022-12-07T17:30:49;2.40;99.90
10443;DHT22;5269;51.146;16.986;2022-12-07T17:33:16;2.40;99.90
10443;DHT22;5269;51.146;16.986;2022-12-07T17:35:50;2.30;99.90
10443;DHT22;5269;51.146;16.986;2022-12-07T17:38:27;2.20;99.90
10443;DHT22;5269;51.146;16.986;2022-12-07T17:41:17;2.10;99.90
10443;DHT22;5269;51.146;16.986;2022-12-07T17:44:11;2.20;99.90
10443;DHT22;5269;51.146;16.986;2022-12-07T17:46:43;2.10;99.90
10443;DHT22;5269;51.146;16.986;2022-12-07T17:49:31;2.00;99.90
10443;DHT22;5269;51.146;16.986;2022-12-07T17:52:00;2.00;99.90
10443;DHT22;5269;51.146;16.986;2022-12-07T17:55:02;1.90;99.90
10443;DHT22;5269;51.146;16.986;2022-12-07T17:57:33;2.00;99.90
10443;DHT22;5269;51.146;16.986;2022-12-07T18:00:01;1.90;99.90
10443;DHT22;5269;51.146;16.986;2022-12-07T18:02:29;1.80;99.90
10443;DHT22;5269;51.146;16.986;2022-12-07T18:05:01;1.80;99.90
10443;DHT22;5269;51.146;16.986;2022-12-07T18:07:29;1.70;99.90
10443;DHT22;5269;51.146;16.986;2022-12-07T18:10:03;1.80;99.90
10443;DHT22;5269;51.146;16.986;2022-12-07T18:15:41;1.70;99.90
10443;DHT22;5269;51.146;16.986;2022-12-07T18:18:09;1.60;99.90
10443;DHT22;5269;51.146;16.986;2022-12-07T18:20:39;1.60;99.90
10443;DHT22;5269;51.146;16.986;2022-12-07T18:23:08;1.50;99.90
10443;DHT22;5269;51.146;16.986;2022-12-07T18:25:37;1.50;99.90
10443;DHT22;5269;51.146;16.986;2022-12-07T18:28:10;1.40;99.90
10443;DHT22;5269;51.146;16.986;2022-12-07T18:30:40;1.30;99.90
10443;DHT22;5269;51.146;16.986;2022-12-07T18:33:11;1.40;99.90
10443;DHT22;5269;51.146;16.986;2022-12-07T18:35:38;1.50;99.90
10443;DHT22;5269;51.146;16.986;2022-12-07T18:38:07;1.40;99.90
10443;DHT22;5269;51.146;16.986;2022-12-07T18:40:36;1.40;99.90
10443;DHT22;5269;51.146;16.986;2022-12-07T18:43:04;1.30;99.90
10443;DHT22;5269;51.146;16.986;2022-12-07T18:45:37;1.30;99.90
10443;DHT22;5269;51.146;16.986;2022-12-07T18:48:09;1.30;99.90
10443;DHT22;5269;51.146;16.986;2022-12-07T18:50:38;1.20;99.90
10443;DHT22;5269;51.146;16.986;2022-12-07T18:53:08;1.20;99.90
10443;DHT22;5269;51.146;16.986;2022-12-07T18:55:48;1.20;99.90
10443;DHT22;5269;51.146;16.986;2022-12-07T19:07:09;1.10;99.90